sensor_id;sensor_type;location;lat;lon;timestamp;P1;durP1;ratioP1;P2;durP2;ratioP2
44328;SDS011;30039;51.462;6.892;2023-02-05T00:01:03;28.23;;;11.40;;
44328;SDS011;30039;51.462;6.892;2023-02-05T00:03:48;23.95;;;10.05;;
44328;SDS011;30039;51.462;6.892;2023-02-05T00:06:34;24.88;;;9.98;;
44328;SDS011;30039;51.462;6.892;2023-02-05T00:09:20;27.40;;;9.50;;
44328;SDS011;30039;51.462;6.892;2023-02-05T00:12:06;23.40;;;9.45;;
44328;SDS011;30039;51.462;6.892;2023-02-05T00:14:52;35.00;;;10.13;;
44328;SDS011;30039;51.462;6.892;2023-02-05T00:17:38;23.65;;;9.05;;
44328;SDS011;30039;51.462;6.892;2023-02-05T00:20:25;24.52;;;9.63;;
44328;SDS011;30039;51.462;6.892;2023-02-05T00:23:13;20.05;;;8.60;;
44328;SDS011;30039;51.462;6.892;2023-02-05T00:26:00;24.10;;;8.15;;
44328;SDS011;30039;51.462;6.892;2023-02-05T00:28:46;30.27;;;9.10;;
44328;SDS011;30039;51.462;6.892;2023-02-05T00:31:32;23.88;;;8.82;;
44328;SDS011;30039;51.462;6.892;2023-02-05T00:34:18;24.95;;;9.02;;
44328;SDS011;30039;51.462;6.892;2023-02-05T00:37:04;27.33;;;9.38;;
44328;SDS011;30039;51.462;6.892;2023-02-05T00:39:50;23.45;;;8.35;;
44328;SDS011;30039;51.462;6.892;2023-02-05T00:42:35;22.40;;;7.85;;
44328;SDS011;30039;51.462;6.892;2023-02-05T00:45:21;28.15;;;8.30;;
44328;SDS011;30039;51.462;6.892;2023-02-05T00:48:07;24.98;;;7.85;;
44328;SDS011;30039;51.462;6.892;2023-02-05T00:50:53;21.48;;;6.70;;
44328;SDS011;30039;51.462;6.892;2023-02-05T00:53:41;24.00;;;7.20;;
44328;SDS011;30039;51.462;6.892;2023-02-05T00:56:27;18.98;;;6.88;;
44328;SDS011;30039;51.462;6.892;2023-02-05T00:59:12;27.50;;;7.65;;
44328;SDS011;30039;51.462;6.892;2023-02-05T01:01:58;27.63;;;8.35;;
44328;SDS011;30039;51.462;6.892;2023-02-05T01:04:44;24.38;;;7.88;;
44328;SDS011;30039;51.462;6.892;2023-02-05T01:07:29;25.48;;;7.82;;
44328;SDS011;30039;51.462;6.892;2023-02-05T01:10:17;23.80;;;7.20;;
44328;SDS011;30039;51.462;6.892;2023-02-05T01:13:04;25.08;;;7.53;;
44328;SDS011;30039;51.462;6.892;2023-02-05T01:15:50;20.98;;;7.30;;
44328;SDS011;30039;51.462;6.892;2023-02-05T01:18:36;28.27;;;7.75;;
44328;SDS011;30039;51.462;6.892;2023-02-05T01:21:23;28.88;;;9.60;;
44328;SDS011;30039;51.462;6.892;2023-02-05T01:24:09;23.05;;;7.88;;
44328;SDS011;30039;51.462;6.892;2023-02-05T01:26:55;23.17;;;7.43;;
44328;SDS011;30039;51.462;6.892;2023-02-05T01:29:44;19.33;;;6.95;;
44328;SDS011;30039;51.462;6.892;2023-02-05T01:32:30;22.17;;;7.25;;
44328;SDS011;30039;51.462;6.892;2023-02-05T01:35:16;26.10;;;7.47;;
44328;SDS011;30039;51.462;6.892;2023-02-05T01:38:02;16.80;;;6.70;;
44328;SDS011;30039;51.462;6.892;2023-02-05T01:40:47;25.00;;;6.78;;
44328;SDS011;30039;51.462;6.892;2023-02-05T01:43:33;21.10;;;7.43;;
44328;SDS011;30039;51.462;6.892;2023-02-05T01:46:23;28.08;;;7.22;;
44328;SDS011;30039;51.462;6.892;2023-02-05T01:49:14;25.02;;;7.43;;
44328;SDS011;30039;51.462;6.892;2023-02-05T01:52:02;25.98;;;6.53;;
44328;SDS011;30039;51.462;6.892;2023-02-05T01:54:50;20.33;;;7.35;;
44328;SDS011;30039;51.462;6.892;2023-02-05T01:57:39;24.38;;;7.93;;
44328;SDS011;30039;51.462;6.892;2023-02-05T02:00:25;28.75;;;7.55;;
44328;SDS011;30039;51.462;6.892;2023-02-05T02:03:11;25.95;;;7.82;;
44328;SDS011;30039;51.462;6.892;2023-02-05T02:05:58;23.25;;;7.20;;
44328;SDS011;30039;51.462;6.892;2023-02-05T02:08:45;26.85;;;7.18;;
44328;SDS011;30039;51.462;6.892;2023-02-05T02:11:32;21.65;;;7.55;;
44328;SDS011;30039;51.462;6.892;2023-02-05T02:14:19;27.83;;;7.78;;
44328;SDS011;30039;51.462;6.892;2023-02-05T02:17:06;26.70;;;8.10;;
44328;SDS011;30039;51.462;6.892;2023-02-05T02:28:42;27.45;;;8.15;;
44328;SDS011;30039;51.462;6.892;2023-02-05T02:31:33;19.05;;;7.13;;
44328;SDS011;30039;51.462;6.892;2023-02-05T02:34:25;21.48;;;7.20;;
44328;SDS011;30039;51.462;6.892;2023-02-05T02:37:30;19.60;;;7.18;;
44328;SDS011;30039;51.462;6.892;2023-02-05T02:40:29;29.75;;;7.28;;
44328;SDS011;30039;51.462;6.892;2023-02-05T02:43:18;23.83;;;7.57;;
44328;SDS011;30039;51.462;6.892;2023-02-05T02:46:10;17.15;;;6.85;;
44328;SDS011;30039;51.462;6.892;2023-02-05T02:49:02;21.30;;;7.72;;
44328;SDS011;30039;51.462;6.892;2023-02-05T02:51:48;30.23;;;7.72;;
44328;SDS011;30039;51.462;6.892;2023-02-05T02:54:35;23.45;;;7.93;;
44328;SDS011;30039;51.462;6.892;2023-02-05T02:57:24;22.75;;;8.30;;
44328;SDS011;30039;51.462;6.892;2023-02-05T03:00:21;27.13;;;7.47;;
44328;SDS011;30039;51.462;6.892;2023-02-05T03:03:09;22.60;;;7.35;;
44328;SDS011;30039;51.462;6.892;2023-02-05T03:05:56;26.48;;;7.53;;
44328;SDS011;30039;51.462;6.892;2023-02-05T03:08:46;22.60;;;7.43;;
44328;SDS011;30039;51.462;6.892;2023-02-05T03:11:35;21.08;;;7.88;;
44328;SDS011;30039;51.462;6.892;2023-02-05T03:14:21;19.58;;;7.80;;
44328;SDS011;30039;51.462;6.892;2023-02-05T03:17:07;24.75;;;8.15;;
44328;SDS011;30039;51.462;6.892;2023-02-05T03:19:57;21.75;;;8.23;;
44328;SDS011;30039;51.462;6.892;2023-02-05T03:22:44;26.83;;;8.35;;
44328;SDS011;30039;51.462;6.892;2023-02-05T03:25:30;24.63;;;7.85;;
44328;SDS011;30039;51.462;6.892;2023-02-05T03:28:15;22.30;;;8.27;;
44328;SDS011;30039;51.462;6.892;2023-02-05T03:31:04;25.73;;;7.82;;
44328;SDS011;30039;51.462;6.892;2023-02-05T03:33:54;26.48;;;8.68;;
44328;SDS011;30039;51.462;6.892;2023-02-05T03:45:52;22.13;;;8.52;;
44328;SDS011;30039;51.462;6.892;2023-02-05T04:00:23;25.85;;;8.05;;
44328;SDS011;30039;51.462;6.892;2023-02-05T04:03:09;23.98;;;9.30;;
44328;SDS011;30039;51.462;6.892;2023-02-05T04:05:55;26.55;;;9.90;;
44328;SDS011;30039;51.462;6.892;2023-02-05T04:08:40;27.30;;;9.48;;
44328;SDS011;30039;51.462;6.892;2023-02-05T04:11:28;28.95;;;8.57;;
44328;SDS011;30039;51.462;6.892;2023-02-05T04:14:14;24.88;;;9.40;;
44328;SDS011;30039;51.462;6.892;2023-02-05T04:16:59;26.75;;;9.88;;
44328;SDS011;30039;51.462;6.892;2023-02-05T04:19:45;27.83;;;11.43;;
44328;SDS011;30039;51.462;6.892;2023-02-05T04:22:31;28.05;;;12.48;;
44328;SDS011;30039;51.462;6.892;2023-02-05T04:25:16;27.63;;;11.13;;
44328;SDS011;30039;51.462;6.892;2023-02-05T04:28:02;32.10;;;11.93;;
44328;SDS011;30039;51.462;6.892;2023-02-05T04:30:49;29.15;;;11.02;;
44328;SDS011;30039;51.462;6.892;2023-02-05T04:33:35;26.65;;;12.43;;
44328;SDS011;30039;51.462;6.892;2023-02-05T04:36:20;30.77;;;13.05;;
44328;SDS011;30039;51.462;6.892;2023-02-05T04:39:06;33.03;;;14.27;;
44328;SDS011;30039;51.462;6.892;2023-02-05T04:41:52;27.77;;;13.18;;
44328;SDS011;30039;51.462;6.892;2023-02-05T04:44:38;36.63;;;14.82;;
44328;SDS011;30039;51.462;6.892;2023-02-05T04:47:23;31.33;;;13.50;;
44328;SDS011;30039;51.462;6.892;2023-02-05T04:50:09;34.17;;;15.32;;
44328;SDS011;30039;51.462;6.892;2023-02-05T04:52:55;32.35;;;14.55;;
44328;SDS011;30039;51.462;6.892;2023-02-05T04:55:41;35.45;;;15.75;;
44328;SDS011;30039;51.462;6.892;2023-02-05T04:58:26;34.63;;;14.90;;
44328;SDS011;30039;51.462;6.892;2023-02-05T05:01:13;34.08;;;15.15;;
44328;SDS011;30039;51.462;6.892;2023-02-05T05:03:59;32.45;;;14.05;;
44328;SDS011;30039;51.462;6.892;2023-02-05T05:06:45;34.13;;;15.07;;
44328;SDS011;30039;51.462;6.892;2023-02-05T05:09:31;36.95;;;15.00;;
44328;SDS011;30039;51.462;6.892;2023-02-05T05:12:17;32.13;;;14.60;;
44328;SDS011;30039;51.462;6.892;2023-02-05T05:15:04;40.40;;;15.55;;
44328;SDS011;30039;51.462;6.892;2023-02-05T05:17:49;36.53;;;14.32;;
44328;SDS011;30039;51.462;6.892;2023-02-05T05:20:35;40.88;;;16.45;;
44328;SDS011;30039;51.462;6.892;2023-02-05T05:23:20;34.95;;;15.50;;
44328;SDS011;30039;51.462;6.892;2023-02-05T05:26:07;42.72;;;15.52;;
44328;SDS011;30039;51.462;6.892;2023-02-05T05:28:55;37.42;;;16.10;;
44328;SDS011;30039;51.462;6.892;2023-02-05T05:31:42;39.72;;;15.65;;
44328;SDS011;30039;51.462;6.892;2023-02-05T05:34:27;36.42;;;16.33;;
44328;SDS011;30039;51.462;6.892;2023-02-05T05:37:15;42.20;;;17.30;;
44328;SDS011;30039;51.462;6.892;2023-02-05T05:40:01;39.33;;;17.48;;
44328;SDS011;30039;51.462;6.892;2023-02-05T05:43:07;45.00;;;17.70;;
44328;SDS011;30039;51.462;6.892;2023-02-05T05:46:12;46.53;;;18.70;;
44328;SDS011;30039;51.462;6.892;2023-02-05T05:49:00;44.20;;;18.83;;
44328;SDS011;30039;51.462;6.892;2023-02-05T05:51:46;41.53;;;17.27;;
44328;SDS011;30039;51.462;6.892;2023-02-05T05:54:31;47.90;;;18.48;;
44328;SDS011;30039;51.462;6.892;2023-02-05T05:57:17;49.58;;;19.02;;
44328;SDS011;30039;51.462;6.892;2023-02-05T06:00:03;49.42;;;18.98;;
44328;SDS011;30039;51.462;6.892;2023-02-05T06:02:49;43.75;;;18.20;;
44328;SDS011;30039;51.462;6.892;2023-02-05T06:05:35;37.20;;;17.10;;
44328;SDS011;30039;51.462;6.892;2023-02-05T06:08:21;48.58;;;18.77;;
44328;SDS011;30039;51.462;6.892;2023-02-05T06:11:07;41.53;;;17.52;;
44328;SDS011;30039;51.462;6.892;2023-02-05T06:13:53;39.45;;;17.58;;
44328;SDS011;30039;51.462;6.892;2023-02-05T06:16:39;48.22;;;18.60;;
44328;SDS011;30039;51.462;6.892;2023-02-05T06:19:25;41.72;;;17.73;;
44328;SDS011;30039;51.462;6.892;2023-02-05T06:22:11;42.70;;;18.15;;
44328;SDS011;30039;51.462;6.892;2023-02-05T06:24:56;42.63;;;18.02;;
44328;SDS011;30039;51.462;6.892;2023-02-05T06:27:42;42.63;;;18.42;;
44328;SDS011;30039;51.462;6.892;2023-02-05T06:30:28;42.08;;;17.27;;
44328;SDS011;30039;51.462;6.892;2023-02-05T06:33:14;42.38;;;18.15;;
44328;SDS011;30039;51.462;6.892;2023-02-05T06:35:59;48.10;;;18.90;;
44328;SDS011;30039;51.462;6.892;2023-02-05T06:38:46;40.47;;;18.40;;
44328;SDS011;30039;51.462;6.892;2023-02-05T06:41:32;40.03;;;18.30;;
44328;SDS011;30039;51.462;6.892;2023-02-05T06:44:18;45.63;;;20.15;;
44328;SDS011;30039;51.462;6.892;2023-02-05T06:47:04;48.45;;;19.23;;
44328;SDS011;30039;51.462;6.892;2023-02-05T06:49:50;41.03;;;18.50;;
44328;SDS011;30039;51.462;6.892;2023-02-05T06:52:35;41.10;;;18.48;;
44328;SDS011;30039;51.462;6.892;2023-02-05T06:55:21;42.63;;;18.35;;
44328;SDS011;30039;51.462;6.892;2023-02-05T06:58:08;43.65;;;17.55;;
44328;SDS011;30039;51.462;6.892;2023-02-05T07:00:53;38.03;;;17.35;;
44328;SDS011;30039;51.462;6.892;2023-02-05T07:03:39;36.67;;;16.67;;
44328;SDS011;30039;51.462;6.892;2023-02-05T07:06:25;33.78;;;17.13;;
44328;SDS011;30039;51.462;6.892;2023-02-05T07:09:11;39.97;;;17.65;;
44328;SDS011;30039;51.462;6.892;2023-02-05T07:11:57;39.80;;;17.70;;
44328;SDS011;30039;51.462;6.892;2023-02-05T07:14:44;36.30;;;16.73;;
44328;SDS011;30039;51.462;6.892;2023-02-05T07:17:30;38.45;;;16.30;;
44328;SDS011;30039;51.462;6.892;2023-02-05T07:20:15;32.05;;;16.05;;
44328;SDS011;30039;51.462;6.892;2023-02-05T07:23:03;27.02;;;14.45;;
44328;SDS011;30039;51.462;6.892;2023-02-05T07:25:49;25.58;;;13.77;;
44328;SDS011;30039;51.462;6.892;2023-02-05T07:28:35;26.33;;;14.85;;
44328;SDS011;30039;51.462;6.892;2023-02-05T07:31:21;23.38;;;12.88;;
44328;SDS011;30039;51.462;6.892;2023-02-05T07:34:07;22.55;;;12.23;;
44328;SDS011;30039;51.462;6.892;2023-02-05T07:36:52;23.55;;;11.73;;
44328;SDS011;30039;51.462;6.892;2023-02-05T07:39:38;21.83;;;10.80;;
44328;SDS011;30039;51.462;6.892;2023-02-05T07:42:24;26.38;;;12.40;;
44328;SDS011;30039;51.462;6.892;2023-02-05T07:45:09;19.40;;;11.48;;
44328;SDS011;30039;51.462;6.892;2023-02-05T07:47:55;20.80;;;11.40;;
44328;SDS011;30039;51.462;6.892;2023-02-05T07:50:44;20.85;;;10.73;;
44328;SDS011;30039;51.462;6.892;2023-02-05T07:53:29;18.15;;;9.63;;
44328;SDS011;30039;51.462;6.892;2023-02-05T07:56:15;18.50;;;9.68;;
44328;SDS011;30039;51.462;6.892;2023-02-05T07:59:02;18.80;;;10.05;;
44328;SDS011;30039;51.462;6.892;2023-02-05T08:01:49;17.45;;;9.10;;
44328;SDS011;30039;51.462;6.892;2023-02-05T08:04:37;20.92;;;9.48;;
44328;SDS011;30039;51.462;6.892;2023-02-05T08:07:23;16.80;;;9.43;;
44328;SDS011;30039;51.462;6.892;2023-02-05T08:10:11;14.65;;;8.70;;
44328;SDS011;30039;51.462;6.892;2023-02-05T08:12:58;14.77;;;7.88;;
44328;SDS011;30039;51.462;6.892;2023-02-05T08:15:43;17.38;;;7.68;;
44328;SDS011;30039;51.462;6.892;2023-02-05T08:18:29;11.85;;;6.68;;
44328;SDS011;30039;51.462;6.892;2023-02-05T08:21:15;11.25;;;6.45;;
44328;SDS011;30039;51.462;6.892;2023-02-05T08:24:01;11.48;;;6.57;;
44328;SDS011;30039;51.462;6.892;2023-02-05T08:26:46;10.30;;;4.57;;
44328;SDS011;30039;51.462;6.892;2023-02-05T08:29:32;8.98;;;3.72;;
44328;SDS011;30039;51.462;6.892;2023-02-05T08:32:19;6.65;;;2.70;;
44328;SDS011;30039;51.462;6.892;2023-02-05T08:35:05;4.85;;;2.40;;
44328;SDS011;30039;51.462;6.892;2023-02-05T08:37:50;3.38;;;2.10;;
44328;SDS011;30039;51.462;6.892;2023-02-05T08:40:36;4.88;;;1.73;;
44328;SDS011;30039;51.462;6.892;2023-02-05T08:43:22;3.13;;;1.63;;
44328;SDS011;30039;51.462;6.892;2023-02-05T08:46:08;3.22;;;1.38;;
44328;SDS011;30039;51.462;6.892;2023-02-05T08:48:56;2.05;;;1.10;;
44328;SDS011;30039;51.462;6.892;2023-02-05T08:51:42;2.53;;;0.98;;
44328;SDS011;30039;51.462;6.892;2023-02-05T08:54:28;3.50;;;1.05;;
44328;SDS011;30039;51.462;6.892;2023-02-05T08:57:13;1.17;;;0.60;;
44328;SDS011;30039;51.462;6.892;2023-02-05T09:00:00;3.80;;;0.70;;
44328;SDS011;30039;51.462;6.892;2023-02-05T09:02:46;2.60;;;0.70;;
44328;SDS011;30039;51.462;6.892;2023-02-05T09:05:32;1.48;;;0.73;;
44328;SDS011;30039;51.462;6.892;2023-02-05T09:08:17;3.92;;;0.73;;
44328;SDS011;30039;51.462;6.892;2023-02-05T09:11:05;0.98;;;0.60;;
44328;SDS011;30039;51.462;6.892;2023-02-05T09:13:51;2.58;;;0.75;;
44328;SDS011;30039;51.462;6.892;2023-02-05T09:16:37;2.13;;;0.52;;
44328;SDS011;30039;51.462;6.892;2023-02-05T09:19:23;1.35;;;0.50;;
44328;SDS011;30039;51.462;6.892;2023-02-05T09:22:08;0.90;;;0.50;;
44328;SDS011;30039;51.462;6.892;2023-02-05T09:24:54;2.85;;;1.40;;
44328;SDS011;30039;51.462;6.892;2023-02-05T09:27:41;1.30;;;0.65;;
44328;SDS011;30039;51.462;6.892;2023-02-05T09:30:27;2.75;;;0.75;;
44328;SDS011;30039;51.462;6.892;2023-02-05T09:33:14;5.88;;;1.65;;
44328;SDS011;30039;51.462;6.892;2023-02-05T09:36:11;3.83;;;1.20;;
44328;SDS011;30039;51.462;6.892;2023-02-05T09:38:57;4.55;;;1.02;;
44328;SDS011;30039;51.462;6.892;2023-02-05T09:47:54;6.22;;;0.80;;
44328;SDS011;30039;51.462;6.892;2023-02-05T09:50:43;5.90;;;1.00;;
44328;SDS011;30039;51.462;6.892;2023-02-05T09:53:32;5.70;;;0.90;;
44328;SDS011;30039;51.462;6.892;2023-02-05T09:56:18;6.50;;;1.10;;
44328;SDS011;30039;51.462;6.892;2023-02-05T09:59:04;4.43;;;0.98;;
44328;SDS011;30039;51.462;6.892;2023-02-05T10:01:51;6.18;;;1.35;;
44328;SDS011;30039;51.462;6.892;2023-02-05T10:04:39;6.43;;;1.20;;
44328;SDS011;30039;51.462;6.892;2023-02-05T10:10:43;7.90;;;1.25;;
44328;SDS011;30039;51.462;6.892;2023-02-05T10:13:39;6.40;;;1.85;;
44328;SDS011;30039;51.462;6.892;2023-02-05T10:22:42;5.10;;;1.15;;
44328;SDS011;30039;51.462;6.892;2023-02-05T10:25:47;5.70;;;1.00;;
44328;SDS011;30039;51.462;6.892;2023-02-05T10:31:48;8.27;;;1.23;;
44328;SDS011;30039;51.462;6.892;2023-02-05T10:37:27;5.93;;;1.00;;
44328;SDS011;30039;51.462;6.892;2023-02-05T10:40:15;6.45;;;1.42;;
44328;SDS011;30039;51.462;6.892;2023-02-05T10:43:09;11.60;;;1.83;;
44328;SDS011;30039;51.462;6.892;2023-02-05T10:45:58;6.90;;;1.33;;
44328;SDS011;30039;51.462;6.892;2023-02-05T10:51:31;6.95;;;1.00;;
44328;SDS011;30039;51.462;6.892;2023-02-05T10:57:03;6.50;;;1.35;;
44328;SDS011;30039;51.462;6.892;2023-02-05T10:59:54;6.28;;;1.10;;
44328;SDS011;30039;51.462;6.892;2023-02-05T11:02:41;5.45;;;1.10;;
44328;SDS011;30039;51.462;6.892;2023-02-05T11:05:37;6.13;;;1.10;;
44328;SDS011;30039;51.462;6.892;2023-02-05T11:08:37;8.93;;;1.48;;
44328;SDS011;30039;51.462;6.892;2023-02-05T11:11:26;7.93;;;1.30;;
44328;SDS011;30039;51.462;6.892;2023-02-05T11:14:13;5.07;;;1.25;;
44328;SDS011;30039;51.462;6.892;2023-02-05T11:17:09;7.45;;;1.73;;
44328;SDS011;30039;51.462;6.892;2023-02-05T11:22:50;8.68;;;1.50;;
44328;SDS011;30039;51.462;6.892;2023-02-05T11:28:37;7.63;;;1.17;;
44328;SDS011;30039;51.462;6.892;2023-02-05T11:31:32;4.72;;;0.90;;
44328;SDS011;30039;51.462;6.892;2023-02-05T11:34:19;6.15;;;1.40;;
44328;SDS011;30039;51.462;6.892;2023-02-05T11:37:04;7.97;;;1.17;;
44328;SDS011;30039;51.462;6.892;2023-02-05T11:39:52;7.43;;;1.20;;
44328;SDS011;30039;51.462;6.892;2023-02-05T11:42:39;5.80;;;1.10;;
44328;SDS011;30039;51.462;6.892;2023-02-05T11:45:26;10.10;;;1.42;;
44328;SDS011;30039;51.462;6.892;2023-02-05T11:51:08;4.65;;;1.40;;
44328;SDS011;30039;51.462;6.892;2023-02-05T11:53:54;7.18;;;1.63;;
44328;SDS011;30039;51.462;6.892;2023-02-05T11:56:41;6.80;;;2.08;;
44328;SDS011;30039;51.462;6.892;2023-02-05T11:59:26;6.03;;;1.55;;
44328;SDS011;30039;51.462;6.892;2023-02-05T12:08:09;4.72;;;1.10;;
44328;SDS011;30039;51.462;6.892;2023-02-05T12:19:41;5.22;;;1.10;;
44328;SDS011;30039;51.462;6.892;2023-02-05T12:22:43;4.35;;;1.20;;
44328;SDS011;30039;51.462;6.892;2023-02-05T12:25:33;7.43;;;1.52;;
44328;SDS011;30039;51.462;6.892;2023-02-05T12:28:29;4.50;;;1.65;;
44328;SDS011;30039;51.462;6.892;2023-02-05T12:37:26;2.47;;;0.80;;
44328;SDS011;30039;51.462;6.892;2023-02-05T12:48:43;5.35;;;1.40;;
44328;SDS011;30039;51.462;6.892;2023-02-05T12:51:36;2.67;;;1.15;;
44328;SDS011;30039;51.462;6.892;2023-02-05T12:57:25;2.65;;;0.85;;
44328;SDS011;30039;51.462;6.892;2023-02-05T13:00:18;5.18;;;1.30;;
44328;SDS011;30039;51.462;6.892;2023-02-05T13:06:13;3.35;;;0.90;;
44328;SDS011;30039;51.462;6.892;2023-02-05T13:09:03;2.53;;;1.00;;
44328;SDS011;30039;51.462;6.892;2023-02-05T13:12:01;4.32;;;1.02;;
44328;SDS011;30039;51.462;6.892;2023-02-05T13:17:40;5.18;;;1.50;;
44328;SDS011;30039;51.462;6.892;2023-02-05T13:23:33;3.63;;;1.20;;
44328;SDS011;30039;51.462;6.892;2023-02-05T13:26:39;8.13;;;1.30;;
44328;SDS011;30039;51.462;6.892;2023-02-05T13:29:47;6.10;;;1.13;;
44328;SDS011;30039;51.462;6.892;2023-02-05T13:32:35;5.10;;;1.40;;
44328;SDS011;30039;51.462;6.892;2023-02-05T13:35:22;7.32;;;2.03;;
44328;SDS011;30039;51.462;6.892;2023-02-05T13:38:19;6.60;;;1.95;;
44328;SDS011;30039;51.462;6.892;2023-02-05T13:44:04;9.35;;;1.92;;
44328;SDS011;30039;51.462;6.892;2023-02-05T13:55:43;4.60;;;0.95;;
44328;SDS011;30039;51.462;6.892;2023-02-05T13:59:17;6.57;;;1.20;;
44328;SDS011;30039;51.462;6.892;2023-02-05T14:01:51;5.00;;;0.90;;
44328;SDS011;30039;51.462;6.892;2023-02-05T14:04:38;10.00;;;1.40;;
44328;SDS011;30039;51.462;6.892;2023-02-05T14:07:26;3.45;;;1.05;;
44328;SDS011;30039;51.462;6.892;2023-02-05T14:10:25;5.60;;;0.90;;
44328;SDS011;30039;51.462;6.892;2023-02-05T14:16:30;3.40;;;0.90;;
44328;SDS011;30039;51.462;6.892;2023-02-05T14:24:42;7.60;;;1.45;;
44328;SDS011;30039;51.462;6.892;2023-02-05T14:33:44;7.38;;;1.10;;
44328;SDS011;30039;51.462;6.892;2023-02-05T14:36:30;4.43;;;1.38;;
44328;SDS011;30039;51.462;6.892;2023-02-05T14:39:17;5.03;;;1.52;;
44328;SDS011;30039;51.462;6.892;2023-02-05T14:42:04;7.50;;;1.70;;
44328;SDS011;30039;51.462;6.892;2023-02-05T14:44:52;10.52;;;1.73;;
44328;SDS011;30039;51.462;6.892;2023-02-05T14:47:39;9.60;;;1.80;;
44328;SDS011;30039;51.462;6.892;2023-02-05T14:50:27;6.78;;;1.10;;
44328;SDS011;30039;51.462;6.892;2023-02-05T14:53:20;8.98;;;1.30;;
44328;SDS011;30039;51.462;6.892;2023-02-05T14:56:20;7.97;;;1.67;;
44328;SDS011;30039;51.462;6.892;2023-02-05T14:59:19;5.32;;;1.15;;
44328;SDS011;30039;51.462;6.892;2023-02-05T15:02:44;7.28;;;1.38;;
44328;SDS011;30039;51.462;6.892;2023-02-05T15:05:17;9.27;;;1.88;;
44328;SDS011;30039;51.462;6.892;2023-02-05T15:11:11;12.40;;;2.13;;
44328;SDS011;30039;51.462;6.892;2023-02-05T15:19:53;7.55;;;1.80;;
44328;SDS011;30039;51.462;6.892;2023-02-05T15:22:42;12.13;;;1.90;;
44328;SDS011;30039;51.462;6.892;2023-02-05T15:28:52;8.48;;;1.83;;
44328;SDS011;30039;51.462;6.892;2023-02-05T15:34:49;6.88;;;1.42;;
44328;SDS011;30039;51.462;6.892;2023-02-05T15:37:57;11.20;;;2.08;;
44328;SDS011;30039;51.462;6.892;2023-02-05T15:40:41;14.10;;;2.03;;
44328;SDS011;30039;51.462;6.892;2023-02-05T15:43:27;12.40;;;2.30;;
44328;SDS011;30039;51.462;6.892;2023-02-05T15:46:13;12.68;;;2.05;;
44328;SDS011;30039;51.462;6.892;2023-02-05T15:49:00;12.23;;;2.33;;
44328;SDS011;30039;51.462;6.892;2023-02-05T15:51:45;11.88;;;2.20;;
44328;SDS011;30039;51.462;6.892;2023-02-05T15:54:32;15.32;;;2.47;;
44328;SDS011;30039;51.462;6.892;2023-02-05T15:57:29;10.73;;;2.00;;
44328;SDS011;30039;51.462;6.892;2023-02-05T16:00:21;7.90;;;1.77;;
44328;SDS011;30039;51.462;6.892;2023-02-05T16:03:20;11.95;;;1.98;;
44328;SDS011;30039;51.462;6.892;2023-02-05T16:06:16;10.20;;;2.67;;
44328;SDS011;30039;51.462;6.892;2023-02-05T16:09:02;8.88;;;2.28;;
44328;SDS011;30039;51.462;6.892;2023-02-05T16:11:47;3.40;;;1.48;;
44328;SDS011;30039;51.462;6.892;2023-02-05T16:14:33;14.70;;;3.53;;
44328;SDS011;30039;51.462;6.892;2023-02-05T16:17:20;10.80;;;2.78;;
44328;SDS011;30039;51.462;6.892;2023-02-05T16:23:21;12.52;;;2.28;;
44328;SDS011;30039;51.462;6.892;2023-02-05T16:29:21;17.80;;;4.95;;
44328;SDS011;30039;51.462;6.892;2023-02-05T16:35:03;13.65;;;3.67;;
44328;SDS011;30039;51.462;6.892;2023-02-05T16:37:49;15.15;;;2.95;;
44328;SDS011;30039;51.462;6.892;2023-02-05T16:40:37;21.25;;;3.58;;
44328;SDS011;30039;51.462;6.892;2023-02-05T16:48:56;11.13;;;2.88;;
44328;SDS011;30039;51.462;6.892;2023-02-05T16:51:52;12.88;;;2.13;;
44328;SDS011;30039;51.462;6.892;2023-02-05T16:54:39;9.98;;;2.38;;
44328;SDS011;30039;51.462;6.892;2023-02-05T16:57:31;9.65;;;2.10;;
44328;SDS011;30039;51.462;6.892;2023-02-05T17:00:26;15.20;;;2.67;;
44328;SDS011;30039;51.462;6.892;2023-02-05T17:03:15;13.35;;;2.22;;
44328;SDS011;30039;51.462;6.892;2023-02-05T17:06:03;13.18;;;2.78;;
44328;SDS011;30039;51.462;6.892;2023-02-05T17:08:53;12.02;;;2.45;;
44328;SDS011;30039;51.462;6.892;2023-02-05T17:11:40;13.32;;;2.55;;
44328;SDS011;30039;51.462;6.892;2023-02-05T17:14:32;11.27;;;2.47;;
44328;SDS011;30039;51.462;6.892;2023-02-05T17:17:20;11.90;;;2.35;;
44328;SDS011;30039;51.462;6.892;2023-02-05T17:20:16;15.15;;;2.22;;
44328;SDS011;30039;51.462;6.892;2023-02-05T17:23:07;17.13;;;2.65;;
44328;SDS011;30039;51.462;6.892;2023-02-05T17:25:53;11.23;;;2.05;;
44328;SDS011;30039;51.462;6.892;2023-02-05T17:28:40;13.70;;;2.00;;
44328;SDS011;30039;51.462;6.892;2023-02-05T17:31:28;10.60;;;2.08;;
44328;SDS011;30039;51.462;6.892;2023-02-05T17:34:16;16.55;;;2.85;;
44328;SDS011;30039;51.462;6.892;2023-02-05T17:37:01;17.75;;;2.47;;
44328;SDS011;30039;51.462;6.892;2023-02-05T17:39:47;14.00;;;2.80;;
44328;SDS011;30039;51.462;6.892;2023-02-05T17:42:36;17.05;;;2.20;;
44328;SDS011;30039;51.462;6.892;2023-02-05T17:45:23;12.32;;;2.45;;
44328;SDS011;30039;51.462;6.892;2023-02-05T17:48:10;13.43;;;1.92;;
44328;SDS011;30039;51.462;6.892;2023-02-05T17:50:56;11.55;;;2.78;;
44328;SDS011;30039;51.462;6.892;2023-02-05T17:53:43;11.93;;;2.13;;
44328;SDS011;30039;51.462;6.892;2023-02-05T17:56:29;15.45;;;2.00;;
44328;SDS011;30039;51.462;6.892;2023-02-05T17:59:16;22.80;;;3.65;;
44328;SDS011;30039;51.462;6.892;2023-02-05T18:02:02;16.05;;;2.40;;
44328;SDS011;30039;51.462;6.892;2023-02-05T18:04:49;13.85;;;2.35;;
44328;SDS011;30039;51.462;6.892;2023-02-05T18:07:41;21.23;;;2.63;;
44328;SDS011;30039;51.462;6.892;2023-02-05T18:10:29;17.30;;;2.05;;
44328;SDS011;30039;51.462;6.892;2023-02-05T18:13:19;15.68;;;2.20;;
44328;SDS011;30039;51.462;6.892;2023-02-05T18:16:06;13.43;;;2.70;;
44328;SDS011;30039;51.462;6.892;2023-02-05T18:18:53;24.08;;;2.70;;
44328;SDS011;30039;51.462;6.892;2023-02-05T18:21:39;21.23;;;2.97;;
44328;SDS011;30039;51.462;6.892;2023-02-05T18:24:24;11.88;;;2.42;;
44328;SDS011;30039;51.462;6.892;2023-02-05T18:27:13;11.02;;;2.20;;
44328;SDS011;30039;51.462;6.892;2023-02-05T18:30:00;8.93;;;2.13;;
44328;SDS011;30039;51.462;6.892;2023-02-05T18:32:48;16.10;;;2.78;;
44328;SDS011;30039;51.462;6.892;2023-02-05T18:35:36;15.60;;;2.40;;
44328;SDS011;30039;51.462;6.892;2023-02-05T18:38:22;14.13;;;2.75;;
44328;SDS011;30039;51.462;6.892;2023-02-05T18:41:10;15.82;;;2.35;;
44328;SDS011;30039;51.462;6.892;2023-02-05T18:43:56;16.50;;;2.70;;
44328;SDS011;30039;51.462;6.892;2023-02-05T18:46:44;13.90;;;2.88;;
44328;SDS011;30039;51.462;6.892;2023-02-05T18:49:30;14.95;;;2.47;;
44328;SDS011;30039;51.462;6.892;2023-02-05T18:52:16;19.25;;;3.15;;
44328;SDS011;30039;51.462;6.892;2023-02-05T18:55:02;17.30;;;2.88;;
44328;SDS011;30039;51.462;6.892;2023-02-05T18:57:52;16.80;;;3.42;;
44328;SDS011;30039;51.462;6.892;2023-02-05T19:00:37;14.27;;;2.70;;
44328;SDS011;30039;51.462;6.892;2023-02-05T19:03:23;15.73;;;3.10;;
44328;SDS011;30039;51.462;6.892;2023-02-05T19:06:10;10.88;;;2.55;;
44328;SDS011;30039;51.462;6.892;2023-02-05T19:08:56;26.52;;;3.10;;
44328;SDS011;30039;51.462;6.892;2023-02-05T19:11:42;12.05;;;2.72;;
44328;SDS011;30039;51.462;6.892;2023-02-05T19:14:28;12.40;;;3.13;;
44328;SDS011;30039;51.462;6.892;2023-02-05T19:17:14;15.00;;;3.10;;
44328;SDS011;30039;51.462;6.892;2023-02-05T19:20:00;17.30;;;3.13;;
44328;SDS011;30039;51.462;6.892;2023-02-05T19:22:45;18.10;;;3.33;;